Weather at Teluk Kepayang Airport

Public forecast

Using degrees Celsius for public forecast. Weather courtesy of forecast.io.

Closest aviation weather report (METAR) to Teluk Kepayang Airport

Closest report is Syamsudin Noor International Airport, 55.4 nm (102.6 km) W.

2024/07/18 17:30 (retrieved 44 minutes ago)

WAOO 181730Z AUTO VRB01KT 9999 FEW210 25/24 Q1011

Closest aviation forecast (TAF) to Teluk Kepayang Airport

Closest forecast is Syamsudin Noor International Airport, 55.4 nm (102.6 km) W.

2024/07/18 18:50 (retrieved 0 seconds ago)

TAF WAOO 181700Z 1818/1918 12006KT 9999 SCT018